createdAt,value
2023-01-09T00:00:04.669Z,-2.40
2023-01-09T00:01:15.803Z,-2.40
2023-01-09T00:02:17.812Z,-2.40
2023-01-09T00:03:19.712Z,-2.40
2023-01-09T00:04:21.619Z,-2.40
2023-01-09T00:05:23.636Z,-2.40
2023-01-09T00:06:25.845Z,-2.40
2023-01-09T00:07:27.592Z,-2.40
2023-01-09T00:08:29.460Z,-2.40
2023-01-09T00:09:31.822Z,-2.40
2023-01-09T00:10:33.709Z,-2.40
2023-01-09T00:11:35.754Z,-2.40
2023-01-09T00:12:37.990Z,-2.40
2023-01-09T00:13:39.992Z,-2.40
2023-01-09T00:14:42.665Z,-2.50
2023-01-09T00:15:44.701Z,-2.40
2023-01-09T00:16:47.262Z,-2.40
2023-01-09T00:17:50.524Z,-2.40
2023-01-09T00:18:53.488Z,-2.40
2023-01-09T00:19:55.879Z,-2.40
2023-01-09T00:21:02.695Z,-2.40
2023-01-09T00:22:06.539Z,-2.40
2023-01-09T00:23:08.469Z,-2.40
2023-01-09T00:24:10.430Z,-2.40
2023-01-09T00:25:13.509Z,-2.40
2023-01-09T00:26:18.167Z,-2.40
2023-01-09T00:27:21.585Z,-2.40
2023-01-09T00:28:23.787Z,-2.40
2023-01-09T00:29:25.773Z,-2.40
2023-01-09T00:30:27.925Z,-2.40
2023-01-09T00:31:29.933Z,-2.40
2023-01-09T00:32:33.152Z,-2.40
2023-01-09T00:33:42.340Z,-2.40
2023-01-09T00:34:44.406Z,-2.40
2023-01-09T00:35:46.302Z,-2.40
2023-01-09T00:36:49.093Z,-2.40
2023-01-09T00:37:51.088Z,-2.30
2023-01-09T00:38:53.086Z,-2.40
2023-01-09T00:39:54.963Z,-2.40
2023-01-09T00:40:57.455Z,-2.30
2023-01-09T00:41:59.354Z,-2.30
2023-01-09T00:43:01.601Z,-2.30
2023-01-09T00:44:10.190Z,-2.30
2023-01-09T00:45:18.313Z,-2.30
2023-01-09T00:46:24.557Z,-2.30
2023-01-09T00:47:37.035Z,-2.30
2023-01-09T00:48:41.092Z,-2.30
2023-01-09T00:49:44.259Z,-2.30
2023-01-09T00:50:46.255Z,-2.30
2023-01-09T00:51:48.843Z,-2.30
2023-01-09T00:52:53.676Z,-2.30
2023-01-09T00:53:55.775Z,-2.30
2023-01-09T00:54:59.280Z,-2.30
2023-01-09T00:56:05.079Z,-2.30
2023-01-09T00:57:08.396Z,-2.30
2023-01-09T00:58:10.720Z,-2.30
2023-01-09T00:59:12.898Z,-2.30
2023-01-09T01:00:15.011Z,-2.30
2023-01-09T01:01:16.995Z,-2.30
2023-01-09T01:02:19.243Z,-2.20
2023-01-09T01:03:21.082Z,-2.30
2023-01-09T01:04:41.455Z,-2.30
2023-01-09T01:06:01.965Z,-2.30
2023-01-09T01:07:22.378Z,-2.30
2023-01-09T01:08:25.005Z,-2.30
2023-01-09T01:09:26.845Z,-2.30
2023-01-09T01:10:28.617Z,-2.30
2023-01-09T01:11:32.619Z,-2.30
2023-01-09T01:12:34.697Z,-2.30
2023-01-09T01:13:38.046Z,-2.30
2023-01-09T01:14:40.324Z,-2.30
2023-01-09T01:15:43.981Z,-2.20
2023-01-09T01:16:45.900Z,-2.30
2023-01-09T01:17:48.066Z,-2.30
2023-01-09T01:18:50.767Z,-2.20
2023-01-09T01:19:52.690Z,-2.20
2023-01-09T01:20:54.827Z,-2.20
2023-01-09T01:21:56.898Z,-2.20
2023-01-09T01:22:58.988Z,-2.20
2023-01-09T01:24:00.899Z,-2.30
2023-01-09T01:25:03.586Z,-2.20
2023-01-09T01:26:11.736Z,-2.20
2023-01-09T01:27:13.656Z,-2.20
2023-01-09T01:28:16.210Z,-2.20
2023-01-09T01:29:18.123Z,-2.20
2023-01-09T01:30:20.753Z,-2.20
2023-01-09T01:31:22.684Z,-2.20
2023-01-09T01:32:25.129Z,-2.20
2023-01-09T01:33:27.401Z,-2.20
2023-01-09T01:34:30.065Z,-2.20
2023-01-09T01:35:32.249Z,-2.20
2023-01-09T01:36:34.867Z,-2.20
2023-01-09T01:37:37.670Z,-2.20
2023-01-09T01:38:39.549Z,-2.20
2023-01-09T01:39:41.715Z,-2.20
2023-01-09T01:40:43.809Z,-2.20
2023-01-09T01:41:45.718Z,-2.20
2023-01-09T01:42:49.613Z,-2.10
2023-01-09T01:43:54.549Z,-2.20
2023-01-09T01:45:12.779Z,-2.20
2023-01-09T01:46:17.396Z,-2.20
2023-01-09T01:47:20.757Z,-2.20
2023-01-09T01:48:27.407Z,-2.20
2023-01-09T01:49:29.263Z,-2.20
2023-01-09T01:50:39.348Z,-2.20
2023-01-09T01:51:46.052Z,-2.20
2023-01-09T01:53:04.070Z,-2.20
2023-01-09T01:54:10.926Z,-2.20
2023-01-09T01:55:13.166Z,-2.20
2023-01-09T01:56:19.962Z,-2.20
2023-01-09T01:57:21.834Z,-2.20
2023-01-09T01:58:23.751Z,-2.20
2023-01-09T01:59:50.228Z,-2.20
2023-01-09T02:00:52.519Z,-2.20
2023-01-09T02:01:59.214Z,-2.20
2023-01-09T02:03:02.269Z,-2.20
2023-01-09T02:04:04.663Z,-2.20
2023-01-09T02:05:06.908Z,-2.20
2023-01-09T02:06:09.759Z,-2.20
2023-01-09T02:07:11.655Z,-2.20
2023-01-09T02:08:13.644Z,-2.20
2023-01-09T02:09:18.342Z,-2.20
2023-01-09T02:10:23.686Z,-2.20
2023-01-09T02:11:25.630Z,-2.20
2023-01-09T02:12:28.656Z,-2.20
2023-01-09T02:13:32.665Z,-2.20
2023-01-09T02:14:34.993Z,-2.20
2023-01-09T02:15:53.913Z,-2.20
2023-01-09T02:17:13.006Z,-2.20
2023-01-09T02:18:39.543Z,-2.20
2023-01-09T02:20:05.691Z,-2.20
2023-01-09T02:21:44.726Z,-2.20
2023-01-09T02:23:00.447Z,-2.20
2023-01-09T02:24:08.176Z,-2.20
2023-01-09T02:25:34.214Z,-2.20
2023-01-09T02:26:54.479Z,-2.20
2023-01-09T02:28:40.024Z,-2.20
2023-01-09T02:30:06.070Z,-2.20
2023-01-09T02:32:34.945Z,-2.20
2023-01-09T02:34:08.202Z,-2.20
2023-01-09T02:35:19.646Z,-2.20
2023-01-09T02:36:30.807Z,-2.20
2023-01-09T02:38:01.429Z,-2.20
2023-01-09T02:39:24.375Z,-2.20
2023-01-09T02:40:35.338Z,-2.20
2023-01-09T02:41:54.012Z,-2.20
2023-01-09T02:42:58.969Z,-2.20
2023-01-09T02:44:25.233Z,-2.10
2023-01-09T02:45:27.592Z,-2.10
2023-01-09T02:46:29.563Z,-2.20
2023-01-09T02:47:43.187Z,-2.20
2023-01-09T02:48:46.216Z,-2.10
2023-01-09T02:49:55.745Z,-2.10
2023-01-09T02:51:13.099Z,-2.10
2023-01-09T02:52:36.036Z,-2.10
2023-01-09T02:53:48.102Z,-2.10
2023-01-09T02:55:20.021Z,-2.10
2023-01-09T02:56:43.354Z,-2.20
2023-01-09T02:57:56.773Z,-2.20
2023-01-09T02:59:06.138Z,-2.20
2023-01-09T03:00:28.747Z,-2.20
2023-01-09T03:02:08.491Z,-2.20
2023-01-09T03:03:42.930Z,-2.20
2023-01-09T03:04:59.370Z,-2.20
2023-01-09T03:06:11.851Z,-2.20
2023-01-09T03:07:31.382Z,-2.20
2023-01-09T03:08:54.361Z,-2.20
2023-01-09T03:10:08.562Z,-2.10
2023-01-09T03:11:12.051Z,-2.10
2023-01-09T03:12:18.542Z,-2.10
2023-01-09T03:13:24.353Z,-2.20
2023-01-09T03:14:28.517Z,-2.10
2023-01-09T03:15:34.751Z,-2.10
2023-01-09T03:16:38.410Z,-2.10
2023-01-09T03:17:45.922Z,-2.10
2023-01-09T03:18:50.774Z,-2.10
2023-01-09T03:19:54.933Z,-2.10
2023-01-09T03:20:57.024Z,-2.10
2023-01-09T03:21:59.447Z,-2.10
2023-01-09T03:23:05.173Z,-2.20
2023-01-09T03:24:07.147Z,-2.20
2023-01-09T03:25:09.237Z,-2.10
2023-01-09T03:26:12.064Z,-2.10
2023-01-09T03:27:14.342Z,-2.10
2023-01-09T03:28:27.070Z,-2.10
2023-01-09T03:29:29.647Z,-2.10
2023-01-09T03:30:33.285Z,-2.10
2023-01-09T03:31:35.325Z,-2.10
2023-01-09T03:32:37.232Z,-2.10
2023-01-09T03:33:39.049Z,-2.10
2023-01-09T03:34:40.826Z,-2.10
2023-01-09T03:35:42.979Z,-2.10
2023-01-09T03:36:45.049Z,-2.10
2023-01-09T03:37:47.018Z,-2.10
2023-01-09T03:38:49.400Z,-2.10
2023-01-09T03:39:52.716Z,-2.10
2023-01-09T03:40:54.568Z,-2.10
2023-01-09T03:41:56.303Z,-2.10
2023-01-09T03:42:58.208Z,-2.10
2023-01-09T03:44:00.120Z,-2.10
2023-01-09T03:45:02.179Z,-2.10
2023-01-09T03:46:04.967Z,-2.10
2023-01-09T03:47:06.745Z,-2.00
2023-01-09T03:48:08.641Z,-2.10
2023-01-09T03:49:10.579Z,-2.10
2023-01-09T03:50:12.518Z,-2.10
2023-01-09T03:51:14.607Z,-2.10
2023-01-09T03:52:16.484Z,-2.10
2023-01-09T03:53:19.594Z,-2.10
2023-01-09T03:54:21.731Z,-2.10
2023-01-09T03:55:23.622Z,-2.10
2023-01-09T03:56:25.714Z,-2.10
2023-01-09T03:57:27.834Z,-2.10
2023-01-09T03:58:29.751Z,-2.20
2023-01-09T03:59:31.646Z,-2.20
2023-01-09T04:00:33.554Z,-2.10
2023-01-09T04:01:35.713Z,-2.20
2023-01-09T04:02:37.743Z,-2.10
2023-01-09T04:03:40.267Z,-2.20
2023-01-09T04:04:42.480Z,-2.10
2023-01-09T04:05:46.074Z,-2.10
2023-01-09T04:06:48.176Z,-2.10
2023-01-09T04:07:50.220Z,-2.20
2023-01-09T04:08:53.478Z,-2.10
2023-01-09T04:09:55.600Z,-2.20
2023-01-09T04:10:57.494Z,-2.20
2023-01-09T04:11:59.360Z,-2.20
2023-01-09T04:13:01.068Z,-2.20
2023-01-09T04:14:02.987Z,-2.10
2023-01-09T04:15:05.281Z,-2.10
2023-01-09T04:16:07.612Z,-2.10
2023-01-09T04:17:09.541Z,-2.10
2023-01-09T04:18:11.938Z,-2.10
2023-01-09T04:19:13.944Z,-2.10
2023-01-09T04:20:16.059Z,-2.10
2023-01-09T04:21:17.807Z,-2.10
2023-01-09T04:22:19.685Z,-2.10
2023-01-09T04:23:21.561Z,-2.10
2023-01-09T04:24:23.451Z,-2.10
2023-01-09T04:25:26.007Z,-2.10
2023-01-09T04:26:28.101Z,-2.10
2023-01-09T04:27:30.354Z,-2.10
2023-01-09T04:28:32.281Z,-2.10
2023-01-09T04:29:34.202Z,-2.10
2023-01-09T04:30:36.081Z,-2.10
2023-01-09T04:31:37.938Z,-2.10
2023-01-09T04:32:39.868Z,-2.10
2023-01-09T04:33:41.793Z,-2.10
2023-01-09T04:34:43.941Z,-2.10
2023-01-09T04:35:46.294Z,-2.10
2023-01-09T04:36:48.406Z,-2.10
2023-01-09T04:37:50.305Z,-2.10
2023-01-09T04:38:52.242Z,-2.10
2023-01-09T04:39:56.200Z,-2.10
2023-01-09T04:40:58.128Z,-2.10
2023-01-09T04:41:59.924Z,-2.10
2023-01-09T04:43:02.080Z,-2.10
2023-01-09T04:44:04.267Z,-2.10
2023-01-09T04:45:08.292Z,-2.10
2023-01-09T04:46:10.247Z,-2.10
2023-01-09T04:47:13.734Z,-2.10
2023-01-09T04:48:15.639Z,-2.10
2023-01-09T04:49:17.369Z,-2.10
2023-01-09T04:50:19.210Z,-2.10
2023-01-09T04:51:21.121Z,-2.10
2023-01-09T04:52:23.181Z,-2.10
2023-01-09T04:53:25.311Z,-2.10
2023-01-09T04:54:28.132Z,-2.10
2023-01-09T04:55:29.874Z,-2.10
2023-01-09T04:56:32.018Z,-2.00
2023-01-09T04:57:34.568Z,-2.10
2023-01-09T04:58:36.669Z,-2.00
2023-01-09T04:59:38.398Z,-2.10
2023-01-09T05:00:40.222Z,-2.10
2023-01-09T05:01:42.316Z,-2.10
2023-01-09T05:02:44.148Z,-2.10
2023-01-09T05:03:46.104Z,-2.10
2023-01-09T05:04:48.033Z,-2.10
2023-01-09T05:05:49.952Z,-2.10
2023-01-09T05:06:52.228Z,-2.10
2023-01-09T05:07:53.987Z,-2.00
2023-01-09T05:08:56.812Z,-2.10
2023-01-09T05:09:58.819Z,-2.00
2023-01-09T05:11:00.910Z,-2.00
2023-01-09T05:12:02.871Z,-2.00
2023-01-09T05:13:04.766Z,-2.00
2023-01-09T05:14:06.539Z,-2.00
2023-01-09T05:15:08.910Z,-2.00
2023-01-09T05:16:10.807Z,-2.00
2023-01-09T05:17:12.569Z,-2.00
2023-01-09T05:18:14.404Z,-2.00
2023-01-09T05:19:16.064Z,-2.00
2023-01-09T05:20:18.167Z,-2.00
2023-01-09T05:21:19.968Z,-2.00
2023-01-09T05:22:21.850Z,-2.00
2023-01-09T05:23:23.789Z,-2.00
2023-01-09T05:24:25.653Z,-2.00
2023-01-09T05:25:27.500Z,-2.00
2023-01-09T05:26:29.191Z,-2.00
2023-01-09T05:27:31.034Z,-2.00
2023-01-09T05:28:32.921Z,-2.00
2023-01-09T05:29:35.055Z,-2.00
2023-01-09T05:30:36.930Z,-2.00
2023-01-09T05:31:38.804Z,-2.00
2023-01-09T05:32:40.633Z,-2.00
2023-01-09T05:33:42.415Z,-2.00
2023-01-09T05:34:44.203Z,-2.00
2023-01-09T05:35:46.113Z,-2.00
2023-01-09T05:36:48.037Z,-2.00
2023-01-09T05:37:50.393Z,-2.00
2023-01-09T05:38:52.361Z,-2.00
2023-01-09T05:39:54.235Z,-2.00
2023-01-09T05:40:55.948Z,-2.00
2023-01-09T05:41:58.135Z,-2.00
2023-01-09T05:43:00.292Z,-2.00
2023-01-09T05:44:02.034Z,-2.00
2023-01-09T05:45:04.665Z,-2.00
2023-01-09T05:46:06.609Z,-2.00
2023-01-09T05:47:08.767Z,-2.00
2023-01-09T05:48:10.560Z,-2.00
2023-01-09T05:49:12.684Z,-2.00
2023-01-09T05:50:15.021Z,-2.00
2023-01-09T05:51:17.473Z,-2.00
2023-01-09T05:52:19.427Z,-2.00
2023-01-09T05:53:21.522Z,-2.00
2023-01-09T05:54:23.298Z,-2.00
2023-01-09T05:55:25.138Z,-2.00
2023-01-09T05:56:27.073Z,-2.00
2023-01-09T05:57:29.299Z,-2.00
2023-01-09T05:58:31.181Z,-2.00
2023-01-09T05:59:34.170Z,-2.00
2023-01-09T06:00:36.123Z,-2.00
2023-01-09T06:01:37.994Z,-2.00
2023-01-09T06:02:40.014Z,-2.00
2023-01-09T06:03:43.880Z,-2.00
2023-01-09T06:04:46.001Z,-2.00
2023-01-09T06:05:47.881Z,-2.00
2023-01-09T06:06:50.101Z,-2.00
2023-01-09T06:07:52.084Z,-2.00
2023-01-09T06:08:54.251Z,-2.00
2023-01-09T06:09:56.123Z,-2.00
2023-01-09T06:10:58.059Z,-2.00
2023-01-09T06:11:59.973Z,-2.00
2023-01-09T06:13:02.216Z,-2.00
2023-01-09T06:14:05.125Z,-2.00
2023-01-09T06:15:08.968Z,-2.00
2023-01-09T06:16:11.156Z,-2.00
2023-01-09T06:17:13.059Z,-2.00
2023-01-09T06:18:15.050Z,-2.00
2023-01-09T06:19:17.009Z,-2.00
2023-01-09T06:20:18.995Z,-2.00
2023-01-09T06:21:21.142Z,-2.00
2023-01-09T06:22:22.881Z,-2.00
2023-01-09T06:23:24.728Z,-2.00
2023-01-09T06:24:26.923Z,-2.00
2023-01-09T06:25:28.815Z,-2.00
2023-01-09T06:26:30.943Z,-2.00
2023-01-09T06:27:32.825Z,-2.00
2023-01-09T06:28:34.747Z,-2.00
2023-01-09T06:29:36.517Z,-2.00
2023-01-09T06:30:38.459Z,-2.00
2023-01-09T06:31:40.522Z,-2.00
2023-01-09T06:32:42.332Z,-2.00
2023-01-09T06:33:44.150Z,-2.00
2023-01-09T06:34:46.042Z,-1.90
2023-01-09T06:35:47.941Z,-2.00
2023-01-09T06:36:49.672Z,-2.00
2023-01-09T06:37:51.826Z,-2.00
2023-01-09T06:38:53.711Z,-2.00
2023-01-09T06:39:55.581Z,-2.00
2023-01-09T06:40:57.295Z,-1.90
2023-01-09T06:41:59.177Z,-1.90
2023-01-09T06:43:01.037Z,-1.90
2023-01-09T06:44:02.814Z,-2.00
2023-01-09T06:45:05.162Z,-1.90
2023-01-09T06:46:07.139Z,-1.90
2023-01-09T06:47:09.145Z,-2.00
2023-01-09T06:48:11.828Z,-2.00
2023-01-09T06:49:13.700Z,-1.90
2023-01-09T06:50:15.758Z,-1.90
2023-01-09T06:51:17.609Z,-1.90
2023-01-09T06:52:19.458Z,-1.90
2023-01-09T06:53:21.395Z,-2.00
2023-01-09T06:54:23.440Z,-1.90
2023-01-09T06:55:26.518Z,-1.90
2023-01-09T06:56:28.380Z,-1.90
2023-01-09T06:57:30.280Z,-1.90
2023-01-09T06:58:32.192Z,-1.90
2023-01-09T06:59:34.016Z,-1.80
2023-01-09T07:00:36.194Z,-1.80
2023-01-09T07:01:39.834Z,-1.80
2023-01-09T07:02:41.610Z,-1.80
2023-01-09T07:03:44.452Z,-1.80
2023-01-09T07:04:46.319Z,-1.80
2023-01-09T07:05:49.227Z,-1.80
2023-01-09T07:06:51.216Z,-1.80
2023-01-09T07:07:52.989Z,-1.80
2023-01-09T07:08:54.992Z,-1.80
2023-01-09T07:09:56.870Z,-1.80
2023-01-09T07:10:58.639Z,-1.80
2023-01-09T07:12:00.681Z,-1.80
2023-01-09T07:13:02.556Z,-1.80
2023-01-09T07:14:04.373Z,-1.80
2023-01-09T07:15:06.491Z,-1.80
2023-01-09T07:16:08.315Z,-1.80
2023-01-09T07:17:12.012Z,-1.80
2023-01-09T07:18:13.807Z,-1.80
2023-01-09T07:19:15.439Z,-1.80
2023-01-09T07:20:18.220Z,-1.80
2023-01-09T07:21:20.007Z,-1.80
2023-01-09T07:22:22.021Z,-1.80
2023-01-09T07:23:24.038Z,-1.80
2023-01-09T07:24:25.802Z,-1.80
2023-01-09T07:25:27.487Z,-1.80
2023-01-09T07:26:29.505Z,-1.80
2023-01-09T07:27:31.270Z,-1.80
2023-01-09T07:28:33.080Z,-1.70
2023-01-09T07:29:35.080Z,-1.70
2023-01-09T07:30:37.144Z,-1.70
2023-01-09T07:31:39.023Z,-1.70
2023-01-09T07:32:41.115Z,-1.70
2023-01-09T07:33:42.930Z,-1.70
2023-01-09T07:34:44.586Z,-1.70
2023-01-09T07:35:46.325Z,-1.70
2023-01-09T07:36:49.165Z,-1.70
2023-01-09T07:37:50.876Z,-1.70
2023-01-09T07:38:52.640Z,-1.70
2023-01-09T07:39:54.429Z,-1.70
2023-01-09T07:40:56.096Z,-1.70
2023-01-09T07:41:57.803Z,-1.70
2023-01-09T07:42:59.657Z,-1.70
2023-01-09T07:44:01.524Z,-1.70
2023-01-09T07:45:03.367Z,-1.70
2023-01-09T07:46:05.468Z,-1.70
2023-01-09T07:47:07.344Z,-1.60
2023-01-09T07:48:09.159Z,-1.60
2023-01-09T07:49:11.019Z,-1.70
2023-01-09T07:50:13.218Z,-1.70
2023-01-09T07:51:14.969Z,-1.60
2023-01-09T07:52:16.645Z,-1.70
2023-01-09T07:53:18.327Z,-1.60
2023-01-09T07:54:20.087Z,-1.60
2023-01-09T07:55:21.716Z,-1.60
2023-01-09T07:56:23.619Z,-1.60
2023-01-09T07:57:25.511Z,-1.60
2023-01-09T07:58:27.387Z,-1.60
2023-01-09T07:59:29.842Z,-1.60
2023-01-09T08:00:33.145Z,-1.60
2023-01-09T08:01:35.314Z,-1.60
2023-01-09T08:02:37.204Z,-1.60
2023-01-09T08:03:39.093Z,-1.50
2023-01-09T08:04:40.790Z,-1.60
2023-01-09T08:05:42.595Z,-1.50
2023-01-09T08:06:44.319Z,-1.50
2023-01-09T08:07:46.206Z,-1.50
2023-01-09T08:08:47.867Z,-1.50
2023-01-09T08:09:49.522Z,-1.50
2023-01-09T08:10:51.369Z,-1.50
2023-01-09T08:11:53.700Z,-1.50
2023-01-09T08:12:55.471Z,-1.50
2023-01-09T08:13:57.288Z,-1.50
2023-01-09T08:14:59.899Z,-1.50
2023-01-09T08:16:01.772Z,-1.50
2023-01-09T08:17:03.619Z,-1.50
2023-01-09T08:18:05.458Z,-1.50
2023-01-09T08:19:07.548Z,-1.50
2023-01-09T08:20:11.505Z,-1.50
2023-01-09T08:21:14.470Z,-1.50
2023-01-09T08:22:16.592Z,-1.50
2023-01-09T08:23:18.500Z,-1.50
2023-01-09T08:24:20.291Z,-1.50
2023-01-09T08:25:22.290Z,-1.50
2023-01-09T08:26:24.077Z,-1.50
2023-01-09T08:27:25.776Z,-1.50
2023-01-09T08:28:28.539Z,-1.50
2023-01-09T08:29:30.580Z,-1.50
2023-01-09T08:30:32.589Z,-1.50
2023-01-09T08:31:34.463Z,-1.50
2023-01-09T08:32:37.629Z,-1.50
2023-01-09T08:33:40.579Z,-1.50
2023-01-09T08:34:42.478Z,-1.40
2023-01-09T08:35:44.557Z,-1.40
2023-01-09T08:36:46.287Z,-1.40
2023-01-09T08:37:48.779Z,-1.40
2023-01-09T08:38:50.660Z,-1.40
2023-01-09T08:39:53.663Z,-1.40
2023-01-09T08:40:55.341Z,-1.40
2023-01-09T08:42:15.713Z,-1.50
2023-01-09T08:43:36.109Z,-1.40
2023-01-09T08:44:56.468Z,-1.40
2023-01-09T08:46:16.828Z,-1.40
2023-01-09T08:47:20.459Z,-1.40
2023-01-09T08:48:22.315Z,-1.30
2023-01-09T08:49:24.181Z,-1.40
2023-01-09T08:50:26.025Z,-1.40
2023-01-09T08:51:27.948Z,-1.40
2023-01-09T08:52:30.715Z,-1.40
2023-01-09T08:53:32.381Z,-1.40
2023-01-09T08:54:36.946Z,-1.40
2023-01-09T08:55:39.084Z,-1.40
2023-01-09T08:56:40.872Z,-1.40
2023-01-09T08:57:49.926Z,-1.40
2023-01-09T08:58:51.706Z,-1.30
2023-01-09T08:59:53.961Z,-1.30
2023-01-09T09:00:56.311Z,-1.30
2023-01-09T09:01:58.652Z,-1.40
2023-01-09T09:03:01.284Z,-1.30
2023-01-09T09:04:05.268Z,-1.30
2023-01-09T09:05:07.249Z,-1.30
2023-01-09T09:06:08.995Z,-1.30
2023-01-09T09:07:10.623Z,-1.30
2023-01-09T09:08:12.644Z,-1.30
2023-01-09T09:09:14.374Z,-1.30
2023-01-09T09:10:19.494Z,-1.30
2023-01-09T09:11:21.343Z,-1.30
2023-01-09T09:12:23.159Z,-1.30
2023-01-09T09:13:25.221Z,-1.30
2023-01-09T09:14:45.470Z,-1.20
2023-01-09T09:15:47.339Z,-1.30
2023-01-09T09:16:49.519Z,-1.30
2023-01-09T09:17:53.737Z,-1.30
2023-01-09T09:18:55.572Z,-1.20
2023-01-09T09:19:57.247Z,-1.20
2023-01-09T09:20:58.896Z,-1.20
2023-01-09T09:22:00.667Z,-1.20
2023-01-09T09:23:02.696Z,-1.20
2023-01-09T09:24:04.783Z,-1.20
2023-01-09T09:25:06.536Z,-1.20
2023-01-09T09:26:08.218Z,-1.10
2023-01-09T09:27:10.044Z,-1.10
2023-01-09T09:28:11.871Z,-1.10
2023-01-09T09:29:16.143Z,-1.10
2023-01-09T09:30:18.704Z,-1.10
2023-01-09T09:31:20.535Z,-1.10
2023-01-09T09:32:22.442Z,-1.10
2023-01-09T09:33:24.119Z,-1.10
2023-01-09T09:34:25.784Z,-1.10
2023-01-09T09:35:28.529Z,-1.10
2023-01-09T09:36:30.258Z,-1.10
2023-01-09T09:37:32.610Z,-1.10
2023-01-09T09:38:34.278Z,-1.10
2023-01-09T09:39:36.066Z,-1.10
2023-01-09T09:40:57.997Z,-1.10
2023-01-09T09:42:36.994Z,-1.10
2023-01-09T09:44:04.801Z,-1.10
2023-01-09T09:45:06.735Z,-1.10
2023-01-09T09:46:08.553Z,-1.10
2023-01-09T09:47:16.419Z,-1.10
2023-01-09T09:48:24.178Z,-1.10
2023-01-09T09:49:33.335Z,-1.10
2023-01-09T09:50:35.068Z,-1.10
2023-01-09T09:51:46.159Z,-1.10
2023-01-09T09:52:53.493Z,-1.10
2023-01-09T09:53:55.551Z,-1.10
2023-01-09T09:54:58.780Z,-1.10
2023-01-09T09:56:02.710Z,-1.10
2023-01-09T09:57:05.954Z,-1.10
2023-01-09T09:58:16.152Z,-1.20
2023-01-09T09:59:19.304Z,-1.10
2023-01-09T10:00:23.119Z,-1.10
2023-01-09T10:01:37.171Z,-1.10
2023-01-09T10:02:45.470Z,-1.10
2023-01-09T10:03:49.336Z,-1.10
2023-01-09T10:05:00.517Z,-1.10
2023-01-09T10:06:08.217Z,-1.10
2023-01-09T10:07:20.528Z,-1.10
2023-01-09T10:08:37.130Z,-1.10
2023-01-09T10:09:39.172Z,-1.10
2023-01-09T10:10:44.174Z,-1.10
2023-01-09T10:11:49.594Z,-1.10
2023-01-09T10:12:55.748Z,-1.10
2023-01-09T10:14:13.301Z,-1.10
2023-01-09T10:15:27.529Z,-1.10
2023-01-09T10:16:37.235Z,-1.10
2023-01-09T10:17:48.799Z,-1.10
2023-01-09T10:18:53.474Z,-1.10
2023-01-09T10:19:58.521Z,-1.10
2023-01-09T10:21:04.377Z,-1.10
2023-01-09T10:22:25.245Z,-1.10
2023-01-09T10:23:27.288Z,-1.10
2023-01-09T10:24:37.634Z,-1.10
2023-01-09T10:25:49.690Z,-1.10
2023-01-09T10:26:52.203Z,-1.10
2023-01-09T10:27:57.269Z,-1.10
2023-01-09T10:29:21.913Z,-1.10
2023-01-09T10:30:29.783Z,-1.10
2023-01-09T10:31:34.335Z,-1.00
2023-01-09T10:32:46.172Z,-0.90
2023-01-09T10:34:06.827Z,-0.90
2023-01-09T10:35:08.830Z,-0.70
2023-01-09T10:36:10.580Z,-0.80
2023-01-09T10:37:18.218Z,-0.80
2023-01-09T10:38:22.901Z,-0.80
2023-01-09T10:39:46.382Z,-0.90
2023-01-09T10:41:01.395Z,-0.90
2023-01-09T10:42:06.416Z,-0.90
2023-01-09T10:43:15.477Z,-1.00
2023-01-09T10:44:21.316Z,-1.00
2023-01-09T10:45:29.488Z,-1.00
2023-01-09T10:46:37.528Z,-1.00
2023-01-09T10:47:40.155Z,-1.00
2023-01-09T10:48:48.361Z,-1.00
2023-01-09T10:49:51.742Z,-1.00
2023-01-09T10:50:55.071Z,-1.00
2023-01-09T10:52:05.848Z,-1.00
2023-01-09T10:53:16.751Z,-1.00
2023-01-09T10:54:23.599Z,-1.00
2023-01-09T10:55:35.971Z,-1.00
2023-01-09T10:56:39.940Z,-1.00
2023-01-09T10:57:43.140Z,-1.00
2023-01-09T10:58:45.142Z,-1.00
2023-01-09T10:59:46.979Z,-1.00
2023-01-09T11:00:49.378Z,-1.00
2023-01-09T11:01:51.779Z,-1.00
2023-01-09T11:02:54.811Z,-1.00
2023-01-09T11:03:59.289Z,-1.00
2023-01-09T11:05:01.041Z,-1.00
2023-01-09T11:06:03.328Z,-1.00
2023-01-09T11:07:15.938Z,-1.00
2023-01-09T11:08:40.396Z,-1.00
2023-01-09T11:09:55.069Z,-1.00
2023-01-09T11:10:58.115Z,-1.00
2023-01-09T11:11:59.797Z,-1.00
2023-01-09T11:13:13.535Z,-1.00
2023-01-09T11:14:17.752Z,-1.00
2023-01-09T11:15:29.312Z,-1.00
2023-01-09T11:16:31.203Z,-0.90
2023-01-09T11:17:33.271Z,-1.00
2023-01-09T11:18:37.727Z,-0.90
2023-01-09T11:19:42.476Z,-1.00
2023-01-09T11:20:44.396Z,-1.00
2023-01-09T11:21:46.286Z,-1.00
2023-01-09T11:22:49.559Z,-0.90
2023-01-09T11:23:51.386Z,-1.00
2023-01-09T11:25:02.629Z,-0.90
2023-01-09T11:26:04.547Z,-0.90
2023-01-09T11:27:25.260Z,-0.90
2023-01-09T11:28:27.181Z,-1.00
2023-01-09T11:29:28.868Z,-1.00
2023-01-09T11:30:31.253Z,-1.00
2023-01-09T11:31:33.449Z,-1.00
2023-01-09T11:32:35.452Z,-1.00
2023-01-09T11:33:38.645Z,-1.00
2023-01-09T11:34:40.788Z,-0.90
2023-01-09T11:35:55.428Z,-0.90
2023-01-09T11:37:07.914Z,-0.90
2023-01-09T11:38:15.206Z,-0.90
2023-01-09T11:39:24.630Z,-0.90
2023-01-09T11:40:26.758Z,-0.90
2023-01-09T11:41:35.032Z,-0.90
2023-01-09T11:42:52.059Z,-0.90
2023-01-09T11:43:55.473Z,-0.90
2023-01-09T11:44:58.458Z,-0.90
2023-01-09T11:46:05.197Z,-0.90
2023-01-09T11:47:23.722Z,-0.90
2023-01-09T11:48:30.545Z,-0.90
2023-01-09T11:49:35.235Z,-0.90
2023-01-09T11:50:37.068Z,-0.90
2023-01-09T11:51:38.976Z,-0.90
2023-01-09T11:52:40.832Z,-0.90
2023-01-09T11:53:48.585Z,-0.90
2023-01-09T11:54:59.480Z,-0.90
2023-01-09T11:56:01.926Z,-0.90
2023-01-09T11:57:03.863Z,-0.90
2023-01-09T11:58:05.832Z,-0.90
2023-01-09T11:59:14.987Z,-0.90
2023-01-09T12:00:28.497Z,-0.90
2023-01-09T12:01:49.243Z,-0.90
2023-01-09T12:02:57.040Z,-0.90
2023-01-09T12:04:18.160Z,-0.90
2023-01-09T12:05:23.414Z,-0.90
2023-01-09T12:06:37.111Z,-0.90
2023-01-09T12:07:56.708Z,-0.90
2023-01-09T12:09:04.099Z,-0.90
2023-01-09T12:10:24.848Z,-0.90
2023-01-09T12:12:02.229Z,-0.90
2023-01-09T12:13:07.013Z,-0.90
2023-01-09T12:14:20.575Z,-0.90
2023-01-09T12:15:41.699Z,-0.90
2023-01-09T12:16:57.793Z,-0.90
2023-01-09T12:20:17.264Z,-0.90
2023-01-09T12:21:44.359Z,-0.90
2023-01-09T12:22:54.737Z,-0.90
2023-01-09T12:24:15.741Z,-0.90
2023-01-09T12:25:37.430Z,-0.90
2023-01-09T12:26:49.933Z,-0.90
2023-01-09T12:27:55.537Z,-0.90
2023-01-09T12:28:58.301Z,-0.90
2023-01-09T12:30:08.180Z,-0.90
2023-01-09T12:31:10.610Z,-1.00
2023-01-09T12:32:22.652Z,-0.90
2023-01-09T12:33:35.176Z,-0.90
2023-01-09T12:35:04.315Z,-0.90
2023-01-09T12:36:39.248Z,-0.90
2023-01-09T12:37:54.200Z,-0.90
2023-01-09T12:39:04.999Z,-1.00
2023-01-09T12:40:21.284Z,-1.00
2023-01-09T12:41:23.597Z,-1.00
2023-01-09T12:42:25.664Z,-1.00
2023-01-09T12:43:36.907Z,-0.90
2023-01-09T12:44:51.838Z,-0.90
2023-01-09T12:46:12.291Z,-1.00
2023-01-09T12:47:20.223Z,-1.00
2023-01-09T12:48:40.757Z,-1.00
2023-01-09T12:49:49.424Z,-1.00
2023-01-09T12:51:03.472Z,-1.00
2023-01-09T12:52:37.944Z,-1.00
2023-01-09T12:53:46.300Z,-0.90
2023-01-09T12:54:54.211Z,-0.90
2023-01-09T12:56:00.647Z,-1.00
2023-01-09T12:57:07.309Z,-1.00
2023-01-09T12:58:15.008Z,-0.90
2023-01-09T12:59:30.611Z,-1.00
2023-01-09T13:00:35.878Z,-0.90
2023-01-09T13:01:43.006Z,-0.90
2023-01-09T13:02:50.440Z,-1.00
2023-01-09T13:04:05.071Z,-1.00
2023-01-09T13:05:09.813Z,-1.00
2023-01-09T13:06:14.826Z,-1.00
2023-01-09T13:07:22.672Z,-1.00
2023-01-09T13:08:31.190Z,-1.00
2023-01-09T13:09:45.845Z,-1.00
2023-01-09T13:10:49.830Z,-1.00
2023-01-09T13:11:51.904Z,-1.00
2023-01-09T13:12:54.329Z,-1.00
2023-01-09T13:13:58.947Z,-1.00
2023-01-09T13:15:02.977Z,-1.00
2023-01-09T13:16:06.460Z,-1.00
2023-01-09T13:17:14.259Z,-1.00
2023-01-09T13:18:24.953Z,-1.00
2023-01-09T13:19:27.009Z,-1.00
2023-01-09T13:20:33.021Z,-1.00
2023-01-09T13:21:35.145Z,-1.00
2023-01-09T13:22:37.041Z,-1.10
2023-01-09T13:23:38.801Z,-1.00
2023-01-09T13:24:49.691Z,-1.10
2023-01-09T13:25:53.514Z,-1.10
2023-01-09T13:27:03.663Z,-1.10
2023-01-09T13:28:18.127Z,-1.10
2023-01-09T13:29:23.018Z,-1.10
2023-01-09T13:30:41.799Z,-1.10
2023-01-09T13:33:11.121Z,-1.10
2023-01-09T13:34:21.745Z,-1.10
2023-01-09T13:35:24.422Z,-1.10
2023-01-09T13:36:28.651Z,-1.10
2023-01-09T13:37:34.792Z,-1.20
2023-01-09T13:38:39.182Z,-1.20
2023-01-09T13:39:41.745Z,-1.20
2023-01-09T13:41:32.922Z,-1.20
2023-01-09T13:42:48.181Z,-1.20
2023-01-09T13:44:14.483Z,-1.20
2023-01-09T13:46:00.512Z,-1.20
2023-01-09T13:47:21.206Z,-1.20
2023-01-09T13:48:26.662Z,-1.30
2023-01-09T13:49:28.899Z,-1.30
2023-01-09T13:50:31.114Z,-1.30
2023-01-09T13:51:42.316Z,-1.30
2023-01-09T13:52:45.072Z,-1.30
2023-01-09T13:53:51.735Z,-1.30
2023-01-09T13:55:00.339Z,-1.30
2023-01-09T13:56:03.659Z,-1.40
2023-01-09T13:57:14.689Z,-1.40
2023-01-09T13:58:18.755Z,-1.30
2023-01-09T13:59:27.151Z,-1.40
2023-01-09T14:00:29.207Z,-1.30
2023-01-09T14:01:40.079Z,-1.40
2023-01-09T14:02:42.782Z,-1.30
2023-01-09T14:03:44.720Z,-1.30
2023-01-09T14:04:46.736Z,-1.40
2023-01-09T14:05:48.793Z,-1.40
2023-01-09T14:07:09.401Z,-1.40
2023-01-09T14:08:17.853Z,-1.40
2023-01-09T14:09:22.207Z,-1.40